sensor_id;sensor_type;location;lat;lon;timestamp;P1;durP1;ratioP1;P2;durP2;ratioP2
17604;SDS011;8921;50.964;6.800;2023-06-22T00:01:30;9.70;;;4.30;;
17604;SDS011;8921;50.964;6.800;2023-06-22T00:03:59;11.77;;;4.73;;
17604;SDS011;8921;50.964;6.800;2023-06-22T00:06:27;8.30;;;4.83;;
17604;SDS011;8921;50.964;6.800;2023-06-22T00:08:55;7.47;;;4.13;;
17604;SDS011;8921;50.964;6.800;2023-06-22T00:11:23;8.87;;;4.20;;
17604;SDS011;8921;50.964;6.800;2023-06-22T00:13:52;7.37;;;4.67;;
17604;SDS011;8921;50.964;6.800;2023-06-22T00:16:20;8.03;;;4.47;;
17604;SDS011;8921;50.964;6.800;2023-06-22T00:18:48;8.07;;;4.37;;
17604;SDS011;8921;50.964;6.800;2023-06-22T00:21:17;8.67;;;4.70;;
17604;SDS011;8921;50.964;6.800;2023-06-22T00:23:45;8.53;;;4.50;;
17604;SDS011;8921;50.964;6.800;2023-06-22T00:26:13;8.30;;;4.27;;
17604;SDS011;8921;50.964;6.800;2023-06-22T00:28:42;6.90;;;4.27;;
17604;SDS011;8921;50.964;6.800;2023-06-22T00:31:10;9.43;;;4.50;;
17604;SDS011;8921;50.964;6.800;2023-06-22T00:33:38;6.70;;;3.90;;
17604;SDS011;8921;50.964;6.800;2023-06-22T00:36:06;9.23;;;4.37;;
17604;SDS011;8921;50.964;6.800;2023-06-22T00:38:35;7.17;;;3.87;;
17604;SDS011;8921;50.964;6.800;2023-06-22T00:41:03;9.70;;;4.10;;
17604;SDS011;8921;50.964;6.800;2023-06-22T00:43:31;10.83;;;5.40;;
17604;SDS011;8921;50.964;6.800;2023-06-22T00:46:00;9.30;;;4.27;;
17604;SDS011;8921;50.964;6.800;2023-06-22T00:48:28;9.63;;;4.20;;
17604;SDS011;8921;50.964;6.800;2023-06-22T00:50:56;8.50;;;4.00;;
17604;SDS011;8921;50.964;6.800;2023-06-22T00:53:24;6.57;;;4.00;;
17604;SDS011;8921;50.964;6.800;2023-06-22T00:55:53;10.03;;;4.27;;
17604;SDS011;8921;50.964;6.800;2023-06-22T00:58:21;7.40;;;4.33;;
17604;SDS011;8921;50.964;6.800;2023-06-22T01:00:50;7.00;;;3.90;;
17604;SDS011;8921;50.964;6.800;2023-06-22T01:03:18;7.57;;;4.87;;
17604;SDS011;8921;50.964;6.800;2023-06-22T01:05:46;9.53;;;4.77;;
17604;SDS011;8921;50.964;6.800;2023-06-22T01:08:31;9.43;;;4.33;;
17604;SDS011;8921;50.964;6.800;2023-06-22T01:11:26;8.57;;;4.90;;
17604;SDS011;8921;50.964;6.800;2023-06-22T01:13:50;9.30;;;4.53;;
17604;SDS011;8921;50.964;6.800;2023-06-22T01:16:25;7.40;;;3.90;;
17604;SDS011;8921;50.964;6.800;2023-06-22T01:18:57;13.00;;;4.13;;
17604;SDS011;8921;50.964;6.800;2023-06-22T01:21:25;7.73;;;4.30;;
17604;SDS011;8921;50.964;6.800;2023-06-22T01:26:42;6.93;;;3.70;;
17604;SDS011;8921;50.964;6.800;2023-06-22T01:29:11;6.80;;;4.00;;
17604;SDS011;8921;50.964;6.800;2023-06-22T01:31:38;7.43;;;4.27;;
17604;SDS011;8921;50.964;6.800;2023-06-22T01:34:07;8.17;;;4.20;;
17604;SDS011;8921;50.964;6.800;2023-06-22T01:36:35;8.07;;;4.40;;
17604;SDS011;8921;50.964;6.800;2023-06-22T01:39:03;7.80;;;4.60;;
17604;SDS011;8921;50.964;6.800;2023-06-22T01:41:33;8.37;;;4.83;;
17604;SDS011;8921;50.964;6.800;2023-06-22T01:44:00;8.07;;;3.77;;
17604;SDS011;8921;50.964;6.800;2023-06-22T01:46:28;11.90;;;4.00;;
17604;SDS011;8921;50.964;6.800;2023-06-22T01:48:56;8.10;;;4.30;;
17604;SDS011;8921;50.964;6.800;2023-06-22T01:51:24;7.10;;;4.33;;
17604;SDS011;8921;50.964;6.800;2023-06-22T01:53:53;10.03;;;5.20;;
17604;SDS011;8921;50.964;6.800;2023-06-22T01:56:21;8.20;;;4.50;;
17604;SDS011;8921;50.964;6.800;2023-06-22T01:58:57;7.30;;;4.50;;
17604;SDS011;8921;50.964;6.800;2023-06-22T02:01:20;8.97;;;4.53;;
17604;SDS011;8921;50.964;6.800;2023-06-22T02:03:48;14.70;;;5.70;;
17604;SDS011;8921;50.964;6.800;2023-06-22T02:06:16;8.83;;;4.20;;
17604;SDS011;8921;50.964;6.800;2023-06-22T02:08:48;6.87;;;4.10;;
17604;SDS011;8921;50.964;6.800;2023-06-22T02:11:17;8.77;;;4.20;;
17604;SDS011;8921;50.964;6.800;2023-06-22T02:13:45;10.20;;;4.27;;
17604;SDS011;8921;50.964;6.800;2023-06-22T02:16:13;10.50;;;4.63;;
17604;SDS011;8921;50.964;6.800;2023-06-22T02:18:47;7.60;;;4.23;;
17604;SDS011;8921;50.964;6.800;2023-06-22T02:21:19;7.73;;;4.50;;
17604;SDS011;8921;50.964;6.800;2023-06-22T02:23:47;8.07;;;3.90;;
17604;SDS011;8921;50.964;6.800;2023-06-22T02:26:16;11.03;;;4.47;;
17604;SDS011;8921;50.964;6.800;2023-06-22T02:28:43;11.20;;;4.53;;
17604;SDS011;8921;50.964;6.800;2023-06-22T02:31:12;7.53;;;3.63;;
17604;SDS011;8921;50.964;6.800;2023-06-22T02:33:40;8.33;;;4.20;;
17604;SDS011;8921;50.964;6.800;2023-06-22T02:36:08;10.93;;;4.97;;
17604;SDS011;8921;50.964;6.800;2023-06-22T02:38:36;6.83;;;4.30;;
17604;SDS011;8921;50.964;6.800;2023-06-22T02:41:05;7.50;;;4.57;;
17604;SDS011;8921;50.964;6.800;2023-06-22T02:43:33;8.13;;;4.10;;
17604;SDS011;8921;50.964;6.800;2023-06-22T02:46:01;8.30;;;4.13;;
17604;SDS011;8921;50.964;6.800;2023-06-22T02:48:30;8.60;;;4.47;;
17604;SDS011;8921;50.964;6.800;2023-06-22T02:50:58;7.27;;;3.93;;
17604;SDS011;8921;50.964;6.800;2023-06-22T02:53:26;10.73;;;4.13;;
17604;SDS011;8921;50.964;6.800;2023-06-22T02:55:55;7.80;;;4.20;;
17604;SDS011;8921;50.964;6.800;2023-06-22T02:58:23;9.40;;;4.20;;
17604;SDS011;8921;50.964;6.800;2023-06-22T03:00:51;7.47;;;4.13;;
17604;SDS011;8921;50.964;6.800;2023-06-22T03:03:20;9.37;;;5.37;;
17604;SDS011;8921;50.964;6.800;2023-06-22T03:05:48;7.80;;;4.20;;
17604;SDS011;8921;50.964;6.800;2023-06-22T03:08:16;7.40;;;4.50;;
17604;SDS011;8921;50.964;6.800;2023-06-22T03:10:45;11.27;;;5.33;;
17604;SDS011;8921;50.964;6.800;2023-06-22T03:13:13;8.20;;;5.47;;
17604;SDS011;8921;50.964;6.800;2023-06-22T03:15:41;7.80;;;4.80;;
17604;SDS011;8921;50.964;6.800;2023-06-22T03:18:10;9.13;;;4.87;;
17604;SDS011;8921;50.964;6.800;2023-06-22T03:20:38;10.07;;;5.27;;
17604;SDS011;8921;50.964;6.800;2023-06-22T03:23:06;7.60;;;4.87;;
17604;SDS011;8921;50.964;6.800;2023-06-22T03:25:35;8.87;;;4.50;;
17604;SDS011;8921;50.964;6.800;2023-06-22T03:28:03;8.00;;;5.73;;
17604;SDS011;8921;50.964;6.800;2023-06-22T03:30:31;9.00;;;4.60;;
17604;SDS011;8921;50.964;6.800;2023-06-22T03:33:00;12.00;;;5.03;;
17604;SDS011;8921;50.964;6.800;2023-06-22T03:35:28;13.17;;;6.30;;
17604;SDS011;8921;50.964;6.800;2023-06-22T03:37:56;8.70;;;4.40;;
17604;SDS011;8921;50.964;6.800;2023-06-22T03:40:24;14.00;;;6.13;;
17604;SDS011;8921;50.964;6.800;2023-06-22T03:42:53;9.77;;;5.27;;
17604;SDS011;8921;50.964;6.800;2023-06-22T03:45:21;9.50;;;5.27;;
17604;SDS011;8921;50.964;6.800;2023-06-22T03:47:49;7.67;;;5.17;;
17604;SDS011;8921;50.964;6.800;2023-06-22T03:50:18;10.70;;;4.80;;
17604;SDS011;8921;50.964;6.800;2023-06-22T03:52:46;7.50;;;4.20;;
17604;SDS011;8921;50.964;6.800;2023-06-22T03:55:14;7.73;;;5.30;;
17604;SDS011;8921;50.964;6.800;2023-06-22T03:57:43;8.33;;;5.20;;
17604;SDS011;8921;50.964;6.800;2023-06-22T04:00:11;10.87;;;5.83;;
17604;SDS011;8921;50.964;6.800;2023-06-22T04:02:39;7.83;;;4.90;;
17604;SDS011;8921;50.964;6.800;2023-06-22T04:05:10;8.57;;;5.20;;
17604;SDS011;8921;50.964;6.800;2023-06-22T04:07:39;8.90;;;5.70;;
17604;SDS011;8921;50.964;6.800;2023-06-22T04:10:07;8.67;;;4.97;;
17604;SDS011;8921;50.964;6.800;2023-06-22T04:12:35;10.30;;;5.60;;
17604;SDS011;8921;50.964;6.800;2023-06-22T04:15:04;7.93;;;4.40;;
17604;SDS011;8921;50.964;6.800;2023-06-22T04:17:32;10.03;;;6.07;;
17604;SDS011;8921;50.964;6.800;2023-06-22T04:20:01;11.93;;;5.53;;
17604;SDS011;8921;50.964;6.800;2023-06-22T04:22:29;10.90;;;5.63;;
17604;SDS011;8921;50.964;6.800;2023-06-22T04:24:57;11.87;;;5.17;;
17604;SDS011;8921;50.964;6.800;2023-06-22T04:27:26;9.77;;;5.93;;
17604;SDS011;8921;50.964;6.800;2023-06-22T04:29:54;8.90;;;5.00;;
17604;SDS011;8921;50.964;6.800;2023-06-22T04:32:22;12.23;;;6.63;;
17604;SDS011;8921;50.964;6.800;2023-06-22T04:34:51;10.83;;;4.90;;
17604;SDS011;8921;50.964;6.800;2023-06-22T04:37:19;14.73;;;6.63;;
17604;SDS011;8921;50.964;6.800;2023-06-22T04:39:47;11.40;;;5.73;;
17604;SDS011;8921;50.964;6.800;2023-06-22T04:42:15;16.73;;;6.43;;
17604;SDS011;8921;50.964;6.800;2023-06-22T04:44:44;12.40;;;5.80;;
17604;SDS011;8921;50.964;6.800;2023-06-22T04:47:12;10.10;;;6.00;;
17604;SDS011;8921;50.964;6.800;2023-06-22T04:49:40;9.03;;;5.80;;
17604;SDS011;8921;50.964;6.800;2023-06-22T04:52:09;10.70;;;6.40;;
17604;SDS011;8921;50.964;6.800;2023-06-22T04:54:37;11.53;;;6.50;;
17604;SDS011;8921;50.964;6.800;2023-06-22T04:57:06;11.90;;;7.37;;
17604;SDS011;8921;50.964;6.800;2023-06-22T04:59:37;10.73;;;7.07;;
17604;SDS011;8921;50.964;6.800;2023-06-22T05:02:08;11.63;;;6.57;;
17604;SDS011;8921;50.964;6.800;2023-06-22T05:04:36;11.10;;;6.27;;
17604;SDS011;8921;50.964;6.800;2023-06-22T05:07:04;10.53;;;6.07;;
17604;SDS011;8921;50.964;6.800;2023-06-22T05:09:32;9.80;;;5.80;;
17604;SDS011;8921;50.964;6.800;2023-06-22T05:12:01;13.13;;;7.63;;
17604;SDS011;8921;50.964;6.800;2023-06-22T05:14:29;11.20;;;6.20;;
17604;SDS011;8921;50.964;6.800;2023-06-22T05:16:57;10.30;;;6.17;;
17604;SDS011;8921;50.964;6.800;2023-06-22T05:19:26;9.93;;;5.40;;
17604;SDS011;8921;50.964;6.800;2023-06-22T05:21:54;11.17;;;6.57;;
17604;SDS011;8921;50.964;6.800;2023-06-22T05:24:22;14.90;;;6.57;;
17604;SDS011;8921;50.964;6.800;2023-06-22T05:26:51;10.60;;;5.97;;
17604;SDS011;8921;50.964;6.800;2023-06-22T05:29:19;10.90;;;6.90;;
17604;SDS011;8921;50.964;6.800;2023-06-22T05:31:47;9.63;;;6.50;;
17604;SDS011;8921;50.964;6.800;2023-06-22T05:34:16;10.27;;;5.40;;
17604;SDS011;8921;50.964;6.800;2023-06-22T05:36:44;20.23;;;6.73;;
17604;SDS011;8921;50.964;6.800;2023-06-22T05:39:12;11.23;;;6.80;;
17604;SDS011;8921;50.964;6.800;2023-06-22T05:41:41;11.63;;;6.00;;
17604;SDS011;8921;50.964;6.800;2023-06-22T05:44:11;13.17;;;6.40;;
17604;SDS011;8921;50.964;6.800;2023-06-22T05:46:40;9.53;;;5.83;;
17604;SDS011;8921;50.964;6.800;2023-06-22T05:49:11;9.50;;;5.57;;
17604;SDS011;8921;50.964;6.800;2023-06-22T05:51:42;10.33;;;6.47;;
17604;SDS011;8921;50.964;6.800;2023-06-22T05:54:10;13.83;;;6.73;;
17604;SDS011;8921;50.964;6.800;2023-06-22T05:56:38;8.97;;;5.50;;
17604;SDS011;8921;50.964;6.800;2023-06-22T05:59:07;9.50;;;5.73;;
17604;SDS011;8921;50.964;6.800;2023-06-22T06:01:35;11.83;;;6.57;;
17604;SDS011;8921;50.964;6.800;2023-06-22T06:04:03;10.23;;;6.93;;
17604;SDS011;8921;50.964;6.800;2023-06-22T06:06:32;10.97;;;6.43;;
17604;SDS011;8921;50.964;6.800;2023-06-22T06:09:00;12.67;;;7.13;;
17604;SDS011;8921;50.964;6.800;2023-06-22T06:11:28;13.23;;;6.33;;
17604;SDS011;8921;50.964;6.800;2023-06-22T06:13:57;11.87;;;6.90;;
17604;SDS011;8921;50.964;6.800;2023-06-22T06:16:25;15.20;;;6.13;;
17604;SDS011;8921;50.964;6.800;2023-06-22T06:18:53;10.20;;;6.17;;
17604;SDS011;8921;50.964;6.800;2023-06-22T06:21:22;8.10;;;5.40;;
17604;SDS011;8921;50.964;6.800;2023-06-22T06:23:50;11.90;;;6.20;;
17604;SDS011;8921;50.964;6.800;2023-06-22T06:26:18;10.50;;;6.07;;
17604;SDS011;8921;50.964;6.800;2023-06-22T06:28:46;10.83;;;6.37;;
17604;SDS011;8921;50.964;6.800;2023-06-22T06:31:15;8.50;;;5.40;;
17604;SDS011;8921;50.964;6.800;2023-06-22T06:33:43;8.10;;;5.50;;
17604;SDS011;8921;50.964;6.800;2023-06-22T06:36:11;14.43;;;6.00;;
17604;SDS011;8921;50.964;6.800;2023-06-22T06:38:40;11.03;;;5.70;;
17604;SDS011;8921;50.964;6.800;2023-06-22T06:41:08;12.40;;;5.37;;
17604;SDS011;8921;50.964;6.800;2023-06-22T06:43:36;9.83;;;5.87;;
17604;SDS011;8921;50.964;6.800;2023-06-22T06:46:05;11.13;;;6.23;;
17604;SDS011;8921;50.964;6.800;2023-06-22T06:48:33;11.40;;;6.57;;
17604;SDS011;8921;50.964;6.800;2023-06-22T06:51:01;18.83;;;6.60;;
17604;SDS011;8921;50.964;6.800;2023-06-22T06:53:29;13.80;;;6.20;;
17604;SDS011;8921;50.964;6.800;2023-06-22T06:55:58;11.37;;;5.73;;
17604;SDS011;8921;50.964;6.800;2023-06-22T06:58:26;10.47;;;7.40;;
17604;SDS011;8921;50.964;6.800;2023-06-22T07:00:55;11.77;;;7.80;;
17604;SDS011;8921;50.964;6.800;2023-06-22T07:03:23;12.73;;;7.03;;
17604;SDS011;8921;50.964;6.800;2023-06-22T07:05:51;14.03;;;8.73;;
17604;SDS011;8921;50.964;6.800;2023-06-22T07:08:20;13.07;;;7.43;;
17604;SDS011;8921;50.964;6.800;2023-06-22T07:10:48;16.33;;;8.60;;
17604;SDS011;8921;50.964;6.800;2023-06-22T07:13:16;15.20;;;10.37;;
17604;SDS011;8921;50.964;6.800;2023-06-22T07:15:45;16.03;;;9.30;;
17604;SDS011;8921;50.964;6.800;2023-06-22T07:18:13;16.00;;;10.10;;
17604;SDS011;8921;50.964;6.800;2023-06-22T07:20:41;11.53;;;9.40;;
17604;SDS011;8921;50.964;6.800;2023-06-22T07:23:09;12.87;;;10.00;;
17604;SDS011;8921;50.964;6.800;2023-06-22T07:25:38;17.60;;;8.50;;
17604;SDS011;8921;50.964;6.800;2023-06-22T07:28:06;13.00;;;9.00;;
17604;SDS011;8921;50.964;6.800;2023-06-22T07:30:34;13.87;;;10.10;;
17604;SDS011;8921;50.964;6.800;2023-06-22T07:33:03;17.23;;;10.60;;
17604;SDS011;8921;50.964;6.800;2023-06-22T07:35:31;13.00;;;9.83;;
17604;SDS011;8921;50.964;6.800;2023-06-22T07:37:59;15.60;;;10.10;;
17604;SDS011;8921;50.964;6.800;2023-06-22T07:40:27;14.60;;;9.40;;
17604;SDS011;8921;50.964;6.800;2023-06-22T07:42:56;21.60;;;10.27;;
17604;SDS011;8921;50.964;6.800;2023-06-22T07:45:24;18.50;;;10.23;;
17604;SDS011;8921;50.964;6.800;2023-06-22T07:47:52;13.20;;;10.17;;
17604;SDS011;8921;50.964;6.800;2023-06-22T07:50:21;19.13;;;12.07;;
17604;SDS011;8921;50.964;6.800;2023-06-22T07:52:49;14.00;;;9.83;;
17604;SDS011;8921;50.964;6.800;2023-06-22T07:55:18;14.90;;;10.47;;
17604;SDS011;8921;50.964;6.800;2023-06-22T07:57:46;12.93;;;9.97;;
17604;SDS011;8921;50.964;6.800;2023-06-22T08:00:14;13.67;;;10.83;;
17604;SDS011;8921;50.964;6.800;2023-06-22T08:02:43;15.93;;;11.27;;
17604;SDS011;8921;50.964;6.800;2023-06-22T08:05:11;20.33;;;10.47;;
17604;SDS011;8921;50.964;6.800;2023-06-22T08:07:39;13.97;;;9.53;;
17604;SDS011;8921;50.964;6.800;2023-06-22T08:10:10;14.00;;;10.50;;
17604;SDS011;8921;50.964;6.800;2023-06-22T08:12:36;18.03;;;12.63;;
17604;SDS011;8921;50.964;6.800;2023-06-22T08:15:05;13.23;;;10.60;;
17604;SDS011;8921;50.964;6.800;2023-06-22T08:17:33;17.43;;;12.00;;
17604;SDS011;8921;50.964;6.800;2023-06-22T08:20:01;17.10;;;12.53;;
17604;SDS011;8921;50.964;6.800;2023-06-22T08:22:30;17.97;;;13.20;;
17604;SDS011;8921;50.964;6.800;2023-06-22T08:24:58;20.00;;;14.70;;
17604;SDS011;8921;50.964;6.800;2023-06-22T08:27:26;16.13;;;11.80;;
17604;SDS011;8921;50.964;6.800;2023-06-22T08:29:55;17.13;;;12.50;;
17604;SDS011;8921;50.964;6.800;2023-06-22T08:32:23;18.70;;;13.23;;
17604;SDS011;8921;50.964;6.800;2023-06-22T08:34:52;18.80;;;12.87;;
17604;SDS011;8921;50.964;6.800;2023-06-22T08:37:20;18.70;;;10.77;;
17604;SDS011;8921;50.964;6.800;2023-06-22T08:39:48;18.50;;;10.53;;
17604;SDS011;8921;50.964;6.800;2023-06-22T08:42:16;15.20;;;11.60;;
17604;SDS011;8921;50.964;6.800;2023-06-22T08:44:44;18.13;;;12.33;;
17604;SDS011;8921;50.964;6.800;2023-06-22T08:47:13;15.60;;;10.27;;
17604;SDS011;8921;50.964;6.800;2023-06-22T08:49:41;17.67;;;11.30;;
17604;SDS011;8921;50.964;6.800;2023-06-22T08:52:09;13.90;;;10.03;;
17604;SDS011;8921;50.964;6.800;2023-06-22T08:54:38;17.63;;;10.70;;
17604;SDS011;8921;50.964;6.800;2023-06-22T08:57:06;14.50;;;9.97;;
17604;SDS011;8921;50.964;6.800;2023-06-22T08:59:34;12.97;;;8.73;;
17604;SDS011;8921;50.964;6.800;2023-06-22T09:02:03;17.00;;;9.13;;
17604;SDS011;8921;50.964;6.800;2023-06-22T09:04:31;13.73;;;9.50;;
17604;SDS011;8921;50.964;6.800;2023-06-22T09:07:00;12.83;;;9.07;;
17604;SDS011;8921;50.964;6.800;2023-06-22T09:09:28;11.40;;;8.87;;
17604;SDS011;8921;50.964;6.800;2023-06-22T09:11:56;13.03;;;8.50;;
17604;SDS011;8921;50.964;6.800;2023-06-22T09:14:24;11.07;;;7.93;;
17604;SDS011;8921;50.964;6.800;2023-06-22T09:16:53;12.90;;;9.17;;
17604;SDS011;8921;50.964;6.800;2023-06-22T09:19:21;12.03;;;8.57;;
17604;SDS011;8921;50.964;6.800;2023-06-22T09:21:49;11.40;;;9.10;;
17604;SDS011;8921;50.964;6.800;2023-06-22T09:24:18;13.60;;;8.60;;
17604;SDS011;8921;50.964;6.800;2023-06-22T09:26:46;11.17;;;8.17;;
17604;SDS011;8921;50.964;6.800;2023-06-22T09:29:14;11.90;;;7.90;;
17604;SDS011;8921;50.964;6.800;2023-06-22T09:31:43;11.83;;;8.30;;
17604;SDS011;8921;50.964;6.800;2023-06-22T09:34:11;11.60;;;8.10;;
17604;SDS011;8921;50.964;6.800;2023-06-22T09:36:40;13.33;;;8.87;;
17604;SDS011;8921;50.964;6.800;2023-06-22T09:39:08;11.80;;;8.37;;
17604;SDS011;8921;50.964;6.800;2023-06-22T09:41:36;12.70;;;8.40;;
17604;SDS011;8921;50.964;6.800;2023-06-22T09:44:04;14.20;;;9.00;;
17604;SDS011;8921;50.964;6.800;2023-06-22T09:46:33;15.30;;;7.83;;
17604;SDS011;8921;50.964;6.800;2023-06-22T09:49:01;10.27;;;7.73;;
17604;SDS011;8921;50.964;6.800;2023-06-22T09:51:29;14.90;;;8.53;;
17604;SDS011;8921;50.964;6.800;2023-06-22T09:53:57;13.03;;;8.20;;
17604;SDS011;8921;50.964;6.800;2023-06-22T09:56:26;13.77;;;8.20;;
17604;SDS011;8921;50.964;6.800;2023-06-22T09:58:54;13.13;;;7.80;;
17604;SDS011;8921;50.964;6.800;2023-06-22T10:01:22;13.60;;;8.60;;
17604;SDS011;8921;50.964;6.800;2023-06-22T10:03:52;10.07;;;8.10;;
17604;SDS011;8921;50.964;6.800;2023-06-22T10:06:19;10.47;;;6.90;;
17604;SDS011;8921;50.964;6.800;2023-06-22T10:08:47;12.27;;;8.33;;
17604;SDS011;8921;50.964;6.800;2023-06-22T10:11:15;8.90;;;7.07;;
17604;SDS011;8921;50.964;6.800;2023-06-22T10:13:44;19.13;;;7.43;;
17604;SDS011;8921;50.964;6.800;2023-06-22T10:16:12;13.00;;;8.50;;
17604;SDS011;8921;50.964;6.800;2023-06-22T10:18:40;19.47;;;8.53;;
17604;SDS011;8921;50.964;6.800;2023-06-22T10:21:09;15.07;;;9.47;;
17604;SDS011;8921;50.964;6.800;2023-06-22T10:23:37;15.03;;;10.10;;
17604;SDS011;8921;50.964;6.800;2023-06-22T10:26:05;12.43;;;9.50;;
17604;SDS011;8921;50.964;6.800;2023-06-22T10:28:33;13.03;;;9.73;;
17604;SDS011;8921;50.964;6.800;2023-06-22T10:31:02;17.83;;;10.10;;
17604;SDS011;8921;50.964;6.800;2023-06-22T10:33:30;14.00;;;10.63;;
17604;SDS011;8921;50.964;6.800;2023-06-22T10:35:58;14.93;;;11.27;;
17604;SDS011;8921;50.964;6.800;2023-06-22T10:38:27;21.73;;;11.37;;
17604;SDS011;8921;50.964;6.800;2023-06-22T10:40:55;18.70;;;12.53;;
17604;SDS011;8921;50.964;6.800;2023-06-22T10:43:23;21.10;;;14.03;;
17604;SDS011;8921;50.964;6.800;2023-06-22T10:45:51;18.57;;;10.97;;
17604;SDS011;8921;50.964;6.800;2023-06-22T10:48:20;16.40;;;11.20;;
17604;SDS011;8921;50.964;6.800;2023-06-22T10:50:48;16.43;;;11.17;;
17604;SDS011;8921;50.964;6.800;2023-06-22T10:53:16;17.40;;;12.70;;
17604;SDS011;8921;50.964;6.800;2023-06-22T10:55:45;16.63;;;12.73;;
17604;SDS011;8921;50.964;6.800;2023-06-22T10:58:13;18.67;;;12.90;;
17604;SDS011;8921;50.964;6.800;2023-06-22T11:00:41;16.20;;;12.77;;
17604;SDS011;8921;50.964;6.800;2023-06-22T11:03:09;19.17;;;14.33;;
17604;SDS011;8921;50.964;6.800;2023-06-22T11:05:38;23.60;;;13.90;;
17604;SDS011;8921;50.964;6.800;2023-06-22T11:08:06;19.93;;;13.57;;
17604;SDS011;8921;50.964;6.800;2023-06-22T11:10:34;25.33;;;15.80;;
17604;SDS011;8921;50.964;6.800;2023-06-22T11:13:03;18.17;;;15.00;;
17604;SDS011;8921;50.964;6.800;2023-06-22T11:15:31;21.93;;;14.90;;
17604;SDS011;8921;50.964;6.800;2023-06-22T11:17:59;17.30;;;13.50;;
17604;SDS011;8921;50.964;6.800;2023-06-22T11:20:27;17.87;;;13.97;;
17604;SDS011;8921;50.964;6.800;2023-06-22T11:22:56;18.57;;;14.13;;
17604;SDS011;8921;50.964;6.800;2023-06-22T11:25:24;18.37;;;14.77;;
17604;SDS011;8921;50.964;6.800;2023-06-22T11:27:52;16.43;;;12.87;;
17604;SDS011;8921;50.964;6.800;2023-06-22T11:30:21;21.23;;;14.57;;
17604;SDS011;8921;50.964;6.800;2023-06-22T11:32:49;18.67;;;12.77;;
17604;SDS011;8921;50.964;6.800;2023-06-22T11:35:17;22.70;;;14.27;;
17604;SDS011;8921;50.964;6.800;2023-06-22T11:37:46;18.27;;;14.97;;
17604;SDS011;8921;50.964;6.800;2023-06-22T11:40:14;20.23;;;15.23;;
17604;SDS011;8921;50.964;6.800;2023-06-22T11:42:42;21.57;;;15.60;;
17604;SDS011;8921;50.964;6.800;2023-06-22T11:45:11;19.27;;;15.20;;
17604;SDS011;8921;50.964;6.800;2023-06-22T11:47:39;18.17;;;14.90;;
17604;SDS011;8921;50.964;6.800;2023-06-22T11:50:07;19.07;;;13.87;;
17604;SDS011;8921;50.964;6.800;2023-06-22T11:52:35;22.63;;;14.20;;
17604;SDS011;8921;50.964;6.800;2023-06-22T11:55:04;18.33;;;16.27;;
17604;SDS011;8921;50.964;6.800;2023-06-22T11:57:33;17.67;;;15.27;;
17604;SDS011;8921;50.964;6.800;2023-06-22T12:00:01;20.10;;;16.20;;
17604;SDS011;8921;50.964;6.800;2023-06-22T12:02:29;20.93;;;16.83;;
17604;SDS011;8921;50.964;6.800;2023-06-22T12:04:57;19.33;;;16.20;;
17604;SDS011;8921;50.964;6.800;2023-06-22T12:07:25;17.90;;;14.70;;
17604;SDS011;8921;50.964;6.800;2023-06-22T12:09:54;20.97;;;16.47;;
17604;SDS011;8921;50.964;6.800;2023-06-22T12:12:22;17.77;;;15.07;;
17604;SDS011;8921;50.964;6.800;2023-06-22T12:14:50;21.60;;;17.80;;
17604;SDS011;8921;50.964;6.800;2023-06-22T12:17:18;21.43;;;17.70;;
17604;SDS011;8921;50.964;6.800;2023-06-22T12:19:47;21.93;;;17.90;;
17604;SDS011;8921;50.964;6.800;2023-06-22T12:22:15;25.57;;;18.07;;
17604;SDS011;8921;50.964;6.800;2023-06-22T12:24:43;22.23;;;17.40;;
17604;SDS011;8921;50.964;6.800;2023-06-22T12:27:12;23.20;;;18.00;;
17604;SDS011;8921;50.964;6.800;2023-06-22T12:29:40;24.00;;;18.73;;
17604;SDS011;8921;50.964;6.800;2023-06-22T12:32:08;24.10;;;17.50;;
17604;SDS011;8921;50.964;6.800;2023-06-22T12:34:37;23.17;;;19.70;;
17604;SDS011;8921;50.964;6.800;2023-06-22T12:37:05;25.00;;;16.90;;
17604;SDS011;8921;50.964;6.800;2023-06-22T12:39:33;29.33;;;16.13;;
17604;SDS011;8921;50.964;6.800;2023-06-22T12:42:02;22.63;;;17.27;;
17604;SDS011;8921;50.964;6.800;2023-06-22T12:44:30;17.23;;;14.50;;
17604;SDS011;8921;50.964;6.800;2023-06-22T12:46:58;18.20;;;15.43;;
17604;SDS011;8921;50.964;6.800;2023-06-22T12:49:26;21.03;;;14.73;;
17604;SDS011;8921;50.964;6.800;2023-06-22T12:51:55;20.67;;;14.50;;
17604;SDS011;8921;50.964;6.800;2023-06-22T12:54:23;19.63;;;14.80;;
17604;SDS011;8921;50.964;6.800;2023-06-22T12:56:51;18.63;;;14.70;;
17604;SDS011;8921;50.964;6.800;2023-06-22T12:59:19;22.27;;;16.30;;
17604;SDS011;8921;50.964;6.800;2023-06-22T13:01:48;20.33;;;14.90;;
17604;SDS011;8921;50.964;6.800;2023-06-22T13:04:16;19.70;;;14.00;;
17604;SDS011;8921;50.964;6.800;2023-06-22T13:06:44;15.33;;;11.47;;
17604;SDS011;8921;50.964;6.800;2023-06-22T13:09:17;20.07;;;12.23;;
17604;SDS011;8921;50.964;6.800;2023-06-22T13:11:44;14.30;;;11.37;;
17604;SDS011;8921;50.964;6.800;2023-06-22T13:14:12;13.53;;;10.63;;
17604;SDS011;8921;50.964;6.800;2023-06-22T13:16:40;14.93;;;10.30;;
17604;SDS011;8921;50.964;6.800;2023-06-22T13:19:08;13.63;;;10.00;;
17604;SDS011;8921;50.964;6.800;2023-06-22T13:21:37;13.20;;;9.00;;
17604;SDS011;8921;50.964;6.800;2023-06-22T13:24:05;12.57;;;9.40;;
17604;SDS011;8921;50.964;6.800;2023-06-22T13:26:33;14.23;;;9.17;;
17604;SDS011;8921;50.964;6.800;2023-06-22T13:29:02;12.33;;;9.00;;
17604;SDS011;8921;50.964;6.800;2023-06-22T13:31:30;18.10;;;8.70;;
17604;SDS011;8921;50.964;6.800;2023-06-22T13:33:58;15.43;;;10.20;;
17604;SDS011;8921;50.964;6.800;2023-06-22T13:36:27;15.27;;;9.53;;
17604;SDS011;8921;50.964;6.800;2023-06-22T13:38:55;13.50;;;9.03;;
17604;SDS011;8921;50.964;6.800;2023-06-22T13:41:23;15.00;;;9.30;;
17604;SDS011;8921;50.964;6.800;2023-06-22T13:43:52;10.97;;;8.57;;
17604;SDS011;8921;50.964;6.800;2023-06-22T13:46:20;12.07;;;8.97;;
17604;SDS011;8921;50.964;6.800;2023-06-22T13:48:48;12.03;;;9.30;;
17604;SDS011;8921;50.964;6.800;2023-06-22T13:51:17;25.43;;;9.90;;
17604;SDS011;8921;50.964;6.800;2023-06-22T13:53:45;16.30;;;9.40;;
17604;SDS011;8921;50.964;6.800;2023-06-22T13:56:14;14.07;;;8.63;;
17604;SDS011;8921;50.964;6.800;2023-06-22T13:58:42;12.10;;;9.00;;
17604;SDS011;8921;50.964;6.800;2023-06-22T14:01:10;10.40;;;8.40;;
17604;SDS011;8921;50.964;6.800;2023-06-22T14:03:38;12.97;;;8.80;;
17604;SDS011;8921;50.964;6.800;2023-06-22T14:06:07;11.53;;;8.47;;
17604;SDS011;8921;50.964;6.800;2023-06-22T14:08:36;11.97;;;7.23;;
17604;SDS011;8921;50.964;6.800;2023-06-22T14:11:03;16.83;;;8.60;;
17604;SDS011;8921;50.964;6.800;2023-06-22T14:13:32;13.50;;;8.20;;
17604;SDS011;8921;50.964;6.800;2023-06-22T14:16:00;11.93;;;7.07;;
17604;SDS011;8921;50.964;6.800;2023-06-22T14:18:28;10.30;;;6.50;;
17604;SDS011;8921;50.964;6.800;2023-06-22T14:20:56;9.63;;;7.23;;
17604;SDS011;8921;50.964;6.800;2023-06-22T14:23:25;10.50;;;7.60;;
17604;SDS011;8921;50.964;6.800;2023-06-22T14:25:53;12.60;;;7.80;;
17604;SDS011;8921;50.964;6.800;2023-06-22T14:28:21;13.00;;;8.93;;
17604;SDS011;8921;50.964;6.800;2023-06-22T14:30:49;12.33;;;9.23;;
17604;SDS011;8921;50.964;6.800;2023-06-22T14:33:18;13.20;;;8.83;;
17604;SDS011;8921;50.964;6.800;2023-06-22T14:35:47;19.43;;;9.77;;
17604;SDS011;8921;50.964;6.800;2023-06-22T14:38:15;12.57;;;9.10;;
17604;SDS011;8921;50.964;6.800;2023-06-22T14:40:43;17.67;;;10.60;;
17604;SDS011;8921;50.964;6.800;2023-06-22T14:43:11;15.00;;;11.27;;
17604;SDS011;8921;50.964;6.800;2023-06-22T14:45:40;16.67;;;12.77;;
17604;SDS011;8921;50.964;6.800;2023-06-22T14:48:08;16.77;;;12.03;;
17604;SDS011;8921;50.964;6.800;2023-06-22T14:50:36;13.93;;;11.87;;
17604;SDS011;8921;50.964;6.800;2023-06-22T14:53:05;22.10;;;12.73;;
17604;SDS011;8921;50.964;6.800;2023-06-22T14:55:33;17.10;;;10.33;;
17604;SDS011;8921;50.964;6.800;2023-06-22T14:58:01;14.97;;;11.13;;